Time;durP1;ratioP1;P1;durP2;ratioP2;P2;SDS_P1;SDS_P2;PMS_P1;PMS_P2;Temp;Humidity;BMP_temperature;BMP_pressure;BME280_temperature;BME280_humidity;BME280_pressure;Samples;Min_cycle;Max_cycle;Signal;HPM_P1;HPM_P2
2020/12/03 06:08:30;;;;;;;47.23;23.67;;;;;;;-0.98;100.00;99424.25;1734994;79;21248;-55
2020/12/03 06:11:38;;;;;;;48.83;23.43;;;;;;;-0.98;100.00;99425.55;1747946;81;21594;-57
2020/12/03 06:14:35;;;;;;;47.03;22.40;;;;;;;-1.00;100.00;99420.97;1737354;81;21810;-58
2020/12/03 06:17:35;;;;;;;44.30;21.33;;;;;;;-1.04;100.00;99430.73;1747174;81;21156;-55
2020/12/03 06:20:26;;;;;;;44.03;20.80;;;;;;;-1.04;100.00;99428.61;1750813;81;21162;-55
2020/12/03 06:23:25;;;;;;;44.80;21.97;;;;;;;-1.06;100.00;99428.73;1750304;80;21294;-57
2020/12/03 06:26:33;;;;;;;42.90;20.37;;;;;;;-1.08;100.00;99429.34;1690216;83;21154;-57
2020/12/03 06:29:20;;;;;;;41.93;19.57;;;;;;;-1.07;100.00;99439.56;1749684;81;21587;-56
2020/12/03 06:32:27;;;;;;;56.53;29.67;;;;;;;-1.02;100.00;99443.09;1771684;80;21200;-57
2020/12/03 06:35:25;;;;;;;49.00;24.70;;;;;;;-0.98;100.00;99444.95;1740206;81;21193;-56
2020/12/03 06:38:19;;;;;;;51.93;25.27;;;;;;;-0.93;100.00;99435.89;1710200;81;21640;-57
2020/12/03 06:41:02;;;;;;;45.60;22.63;;;;;;;-0.85;100.00;99433.53;1754111;81;21141;-50
2020/12/03 06:43:38;;;;;;;38.70;19.83;;;;;;;-0.79;100.00;99426.23;1736352;81;21290;-55
2020/12/03 06:46:32;;;;;;;47.83;23.00;;;;;;;-0.88;99.71;99427.77;1748795;81;21137;-57
2020/12/03 06:49:27;;;;;;;37.00;18.90;;;;;;;-0.94;99.55;99426.95;1730409;81;21165;-61
2020/12/03 06:52:35;;;;;;;43.53;21.30;;;;;;;-0.93;99.73;99428.59;1729455;83;21164;-61
2020/12/03 06:55:33;;;;;;;41.73;19.97;;;;;;;-0.90;99.25;99426.59;1749337;81;21166;-48
2020/12/03 06:58:26;;;;;;;40.33;19.83;;;;;;;-0.83;98.79;99423.88;1729282;82;21159;-50
2020/12/03 07:01:36;;;;;;;35.67;18.00;;;;;;;-0.79;98.41;99427.05;1756958;82;21193;-49
2020/12/03 07:04:43;;;;;;;34.60;16.67;;;;;;;-0.74;97.76;99426.70;1756550;82;21162;-48
2020/12/03 07:08:08;;;;;;;39.30;19.33;;;;;;;-0.68;96.86;99410.67;1706541;82;21201;-54
2020/12/03 07:11:13;;;;;;;35.17;18.07;;;;;;;-0.65;96.70;99410.41;1651114;86;21704;-54
2020/12/03 07:13:59;;;;;;;36.13;17.70;;;;;;;-0.58;95.95;99425.80;1651051;87;21808;-59
2020/12/03 07:17:08;;;;;;;35.07;16.97;;;;;;;-0.62;94.40;99427.01;1716315;82;21170;-48
2020/12/03 07:19:49;;;;;;;36.43;16.67;;;;;;;-0.68;94.43;99426.20;1668587;84;21210;-49
2020/12/03 07:22:38;;;;;;;32.98;16.37;;;;;;;-0.71;93.99;99425.95;1707664;84;21217;-55
2020/12/03 07:25:07;;;;;;;31.83;15.50;;;;;;;-0.78;93.52;99420.92;1706033;84;21596;-55
2020/12/03 07:28:05;;;;;;;34.75;16.30;;;;;;;-0.79;93.71;99427.52;1738597;81;21150;-49
2020/12/03 07:30:54;;;;;;;31.10;15.20;;;;;;;-0.79;93.64;99432.70;1680618;83;21610;-47
2020/12/03 07:33:40;;;;;;;31.40;17.03;;;;;;;-0.82;92.94;99441.05;1722193;82;21163;-47
2020/12/03 07:36:57;;;;;;;26.53;14.40;;;;;;;-0.85;93.01;99434.83;1724723;82;21194;-54
2020/12/03 07:39:32;;;;;;;28.80;14.67;;;;;;;-0.90;92.09;99432.25;1725122;83;21316;-54
2020/12/03 07:42:23;;;;;;;32.90;17.10;;;;;;;-0.97;92.18;99425.45;1725192;83;21200;-57
2020/12/03 07:44:55;;;;;;;30.27;16.30;;;;;;;-0.97;92.29;99426.73;1744713;82;21195;-56
2020/12/03 07:47:33;;;;;;;33.00;17.87;;;;;;;-0.96;92.46;99431.44;1741742;82;21170;-53
2020/12/03 07:50:07;;;;;;;31.83;17.07;;;;;;;-0.95;93.17;99428.72;1741121;81;21599;-56
2020/12/03 07:52:37;;;;;;;34.60;17.27;;;;;;;-0.85;93.98;99432.24;1720303;82;21250;-52
2020/12/03 07:55:28;;;;;;;32.17;17.52;;;;;;;-0.68;94.39;99438.67;1745623;82;21360;-48
2020/12/03 07:57:59;;;;;;;31.23;17.10;;;;;;;-0.55;94.17;99441.92;1745545;82;22128;-57
2020/12/03 08:00:45;;;;;;;31.17;17.70;;;;;;;-0.46;92.56;99430.02;1756396;82;22276;-58
2020/12/03 08:03:48;;;;;;;30.47;15.90;;;;;;;-0.40;92.11;99432.11;1756290;82;21193;-58
2020/12/03 08:06:31;;;;;;;32.80;16.97;;;;;;;-0.36;89.61;99426.19;1756507;80;21174;-55
2020/12/03 08:09:13;;;;;;;31.40;17.10;;;;;;;-0.43;90.06;99421.98;1745513;82;21288;-59
2020/12/03 08:12:06;;;;;;;33.90;17.97;;;;;;;-0.38;90.26;99419.03;1713625;84;21182;-58
2020/12/03 08:14:56;;;;;;;29.53;16.07;;;;;;;-0.34;89.61;99413.95;1718162;83;21181;-57
2020/12/03 08:17:34;;;;;;;32.20;17.07;;;;;;;-0.30;89.84;99408.38;1819521;79;22981;-58
2020/12/03 08:20:10;;;;;;;28.27;15.63;;;;;;;-0.29;89.41;99389.77;1817826;78;21170;-61
2020/12/03 08:22:55;;;;;;;33.03;16.70;;;;;;;-0.28;88.63;99388.84;1782023;80;21545;-58
2020/12/03 08:25:29;;;;;;;27.67;15.43;;;;;;;-0.31;88.74;99389.08;1711384;82;21165;-59
2020/12/03 08:28:04;;;;;;;33.47;17.80;;;;;;;-0.30;88.82;99388.12;1679751;85;21300;-60
2020/12/03 08:30:36;;;;;;;28.30;14.97;;;;;;;-0.23;88.42;99374.19;1677736;84;21139;-59
2020/12/03 08:33:18;;;;;;;31.30;15.37;;;;;;;-0.24;87.55;99375.14;1731337;81;21179;-51
2020/12/03 08:36:02;;;;;;;31.23;17.07;;;;;;;-0.27;87.77;99374.45;1732335;82;21352;-47
2020/12/03 08:38:33;;;;;;;33.23;17.03;;;;;;;-0.28;88.07;99364.23;1735043;83;21749;-59
2020/12/03 08:41:06;;;;;;;32.13;16.50;;;;;;;-0.24;88.52;99355.71;1718780;82;21177;-55
2020/12/03 08:43:53;;;;;;;28.37;15.73;;;;;;;-0.21;88.09;99355.47;1711445;82;21162;-54
2020/12/03 08:46:26;;;;;;;28.60;16.23;;;;;;;-0.23;88.27;99350.42;1732397;82;21193;-56
2020/12/03 08:48:59;;;;;;;30.43;16.80;;;;;;;-0.22;88.34;99344.29;1724197;82;21214;-50
2020/12/03 08:51:29;;;;;;;32.50;17.17;;;;;;;-0.21;88.62;99352.87;1693305;83;21190;-49
2020/12/03 08:54:00;;;;;;;32.87;18.03;;;;;;;-0.19;88.66;99358.75;1700084;83;21237;-48
2020/12/03 08:56:40;;;;;;;31.37;16.70;;;;;;;-0.17;89.11;99356.39;1709332;83;21699;-48
2020/12/03 08:59:18;;;;;;;34.67;17.87;;;;;;;-0.12;89.08;99358.10;1739205;81;21201;-50
2020/12/03 09:01:56;;;;;;;31.17;17.07;;;;;;;-0.11;88.57;99351.99;1721517;81;21267;-65
2020/12/03 09:04:29;;;;;;;31.13;16.77;;;;;;;-0.12;88.42;99353.39;1710355;83;21179;-62
2020/12/03 09:07:09;;;;;;;31.40;16.07;;;;;;;-0.13;88.81;99340.91;1725356;83;21208;-51
2020/12/03 09:09:44;;;;;;;29.27;15.80;;;;;;;-0.11;88.23;99325.27;1727070;83;21226;-52
2020/12/03 09:12:23;;;;;;;31.97;17.00;;;;;;;-0.11;88.30;99322.19;1719554;82;21206;-58
2020/12/03 09:14:55;;;;;;;30.87;16.43;;;;;;;-0.11;88.79;99322.19;1675331;83;21319;-60
2020/12/03 09:17:24;;;;;;;;;;;;;;;-0.04;88.68;99317.31;1707840;83;21717;-57
2020/12/03 09:22:37;;;;;;;31.47;15.50;;;;;;;0.03;88.19;99305.95;1659929;86;21227;-58
2020/12/03 09:25:10;;;;;;;28.43;15.17;;;;;;;0.06;88.09;99304.38;1608757;88;21257;-54
2020/12/03 09:27:52;;;;;;;29.07;16.30;;;;;;;0.06;87.46;99306.52;1634212;88;21170;-51
2020/12/03 09:30:30;;;;;;;27.43;15.00;;;;;;;0.06;87.18;99306.52;1643932;87;21246;-54
2020/12/03 09:33:03;;;;;;;29.70;16.17;;;;;;;0.02;87.63;99305.13;1652059;87;21629;-55
2020/12/03 09:35:33;;;;;;;30.57;17.07;;;;;;;0.05;87.50;99302.73;1642472;86;21330;-62
2020/12/03 09:38:06;;;;;;;32.60;18.50;;;;;;;0.08;87.52;99304.61;1634938;87;21207;-51
2020/12/03 09:40:37;;;;;;;30.27;16.63;;;;;;;0.14;87.53;99303.27;1707452;83;21581;-58
2020/12/03 09:43:09;;;;;;;28.90;15.87;;;;;;;0.19;87.37;99306.30;1715138;84;21299;-62
2020/12/03 09:45:40;;;;;;;31.80;16.90;;;;;;;0.23;87.00;99310.24;1666991;84;21154;-61
2020/12/03 09:48:25;;;;;;;28.70;16.50;;;;;;;0.25;87.33;99314.37;1695250;84;21159;-56
2020/12/03 09:50:59;;;;;;;29.43;15.57;;;;;;;0.25;87.00;99309.18;1643883;85;21612;-58
2020/12/03 09:53:28;;;;;;;32.05;17.30;;;;;;;0.23;87.30;99311.55;1693820;84;21172;-53
2020/12/03 09:56:01;;;;;;;29.93;15.70;;;;;;;0.24;87.72;99308.02;1693330;85;21177;-50
2020/12/03 09:58:31;;;;;;;31.27;15.97;;;;;;;0.24;87.23;99301.54;1694351;84;21185;-55
2020/12/03 10:01:06;;;;;;;29.97;16.40;;;;;;;0.22;87.09;99291.28;1683416;84;21596;-56
2020/12/03 10:04:01;;;;;;;34.27;18.87;;;;;;;0.20;87.14;99280.23;1681497;85;21363;-53
2020/12/03 10:06:38;;;;;;;34.97;18.03;;;;;;;0.18;87.28;99289.10;1693524;84;21228;-56
2020/12/03 10:09:25;;;;;;;34.90;18.33;;;;;;;0.17;87.56;99283.09;1709657;84;21339;-57
2020/12/03 10:12:12;;;;;;;32.17;17.00;;;;;;;0.18;87.54;99283.92;1709348;83;21161;-56
2020/12/03 10:15:18;;;;;;;31.50;18.03;;;;;;;0.18;87.71;99276.95;1709782;83;21597;-53
2020/12/03 10:18:04;;;;;;;31.17;17.97;;;;;;;0.22;87.81;99274.42;1727353;83;21596;-52
2020/12/03 10:20:37;;;;;;;30.40;17.70;;;;;;;0.30;87.90;99271.67;1701837;81;21148;-59
2020/12/03 10:23:32;;;;;;;32.25;18.27;;;;;;;0.38;87.67;99263.56;1760621;81;21480;-56
2020/12/03 10:26:19;;;;;;;31.47;16.70;;;;;;;0.44;87.46;99266.91;1760595;81;21214;-55
2020/12/03 10:29:00;;;;;;;32.03;16.10;;;;;;;0.47;86.43;99273.62;1741298;81;21148;-54
2020/12/03 10:31:31;;;;;;;30.20;15.97;;;;;;;0.43;86.11;99278.73;1739147;82;21118;-54
2020/12/03 10:34:01;;;;;;;28.20;15.73;;;;;;;0.39;85.51;99277.34;1740583;81;21184;-57
2020/12/03 10:36:36;;;;;;;30.23;16.67;;;;;;;0.37;85.88;99272.30;1728735;83;21352;-60
2020/12/03 10:39:05;;;;;;;28.80;15.50;;;;;;;0.39;85.35;99267.78;1728881;81;21184;-60
2020/12/03 10:41:38;;;;;;;29.37;16.17;;;;;;;0.39;85.28;99261.30;1729415;81;21290;-54
2020/12/03 10:44:13;;;;;;;;;;;;;;;0.39;85.51;99266.48;1731165;83;21443;-55
2020/12/03 10:46:47;;;;;;;29.80;16.23;;;;;;;0.42;85.76;99256.34;1728785;81;20235;-56
2020/12/03 10:49:16;;;;;;;30.70;17.13;;;;;;;0.47;85.31;99256.29;1728902;81;21180;-65
2020/12/03 10:51:46;;;;;;;32.63;18.85;;;;;;;0.46;85.07;99253.80;1729196;83;21725;-50
2020/12/03 10:54:19;;;;;;;31.37;16.37;;;;;;;0.48;85.42;99258.41;1728796;83;21198;-48
2020/12/03 10:56:51;;;;;;;30.43;17.40;;;;;;;0.53;85.19;99257.05;1729346;81;21207;-64
2020/12/03 11:02:28;;;;;;;32.87;17.33;;;;;;;0.65;84.73;99253.85;1819442;79;23054;-47
2020/12/03 11:04:58;;;;;;;34.40;18.07;;;;;;;0.65;85.25;99249.96;1789373;80;21173;-53
2020/12/03 11:07:30;;;;;;;31.10;17.87;;;;;;;0.72;85.17;99248.46;1761615;81;21185;-57
2020/12/03 11:10:00;;;;;;;34.85;18.20;;;;;;;0.83;85.02;99243.62;1733112;81;21118;-49
2020/12/03 11:12:30;;;;;;;31.53;17.97;;;;;;;0.89;85.20;99256.53;1760771;81;21173;-57
2020/12/03 11:15:04;;;;;;;31.13;17.03;;;;;;;0.93;85.03;99252.24;1707190;83;21852;-59
2020/12/03 11:18:06;;;;;;;32.43;18.30;;;;;;;1.02;84.35;99255.78;1699230;84;21171;-63
2020/12/03 11:20:38;;;;;;;37.40;19.63;;;;;;;0.98;84.03;99247.94;1668546;83;22274;-61
2020/12/03 11:23:23;;;;;;;36.43;18.53;;;;;;;0.93;84.05;99239.74;1714259;83;21299;-55
2020/12/03 11:26:05;;;;;;;36.77;19.87;;;;;;;0.93;84.32;99242.34;1823209;76;23032;-57
2020/12/03 11:28:37;;;;;;;34.57;19.87;;;;;;;0.84;84.57;99235.36;1781429;78;21569;-51
2020/12/03 11:31:08;;;;;;;33.83;19.33;;;;;;;0.81;85.08;99241.66;1763332;80;21106;-57
2020/12/03 11:33:43;;;;;;;35.33;18.85;;;;;;;0.80;85.15;99239.98;1793782;78;21660;-57
2020/12/03 11:36:17;;;;;;;32.20;18.17;;;;;;;0.77;85.26;99240.27;1804433;79;21204;-60
2020/12/03 11:38:56;;;;;;;31.13;18.27;;;;;;;0.72;85.76;99238.08;1797750;78;21191;-56
2020/12/03 11:41:37;;;;;;;34.63;18.93;;;;;;;0.67;86.21;99220.80;1803666;79;21169;-54
2020/12/03 11:49:29;;;;;;;37.67;21.00;;;;;;;0.61;87.19;99233.02;1785624;80;21216;-53
2020/12/03 11:52:15;;;;;;;31.87;18.20;;;;;;;0.60;87.18;99230.56;1738463;81;21628;-52
2020/12/03 11:54:47;;;;;;;39.13;22.20;;;;;;;0.55;87.24;99229.66;1769857;81;21172;-54
2020/12/03 11:57:16;;;;;;;40.73;24.47;;;;;;;0.57;87.42;99226.45;1752218;81;21597;-48
2020/12/03 11:59:48;;;;;;;41.70;22.73;;;;;;;0.60;87.69;99218.89;1739034;81;21118;-53
2020/12/03 12:02:18;;;;;;;34.15;19.37;;;;;;;0.64;88.07;99224.16;1739586;81;21135;-48
2020/12/03 12:07:39;;;;;;;34.63;18.00;;;;;;;0.82;87.62;99217.81;1849318;77;23087;-55
2020/12/03 12:12:47;;;;;;;32.10;17.48;;;;;;;0.77;87.67;99209.95;1827785;78;21563;-52
2020/12/03 12:15:16;;;;;;;34.57;18.17;;;;;;;0.75;87.64;99205.39;1797297;78;21150;-53
2020/12/03 12:17:46;;;;;;;32.37;17.07;;;;;;;0.72;87.76;99208.23;1799120;78;21244;-53
2020/12/03 12:20:16;;;;;;;34.10;18.50;;;;;;;0.72;88.04;99198.34;1795158;80;21776;-59
2020/12/03 12:22:47;;;;;;;32.35;18.85;;;;;;;0.66;88.15;99207.48;1794917;80;21158;-48
2020/12/03 12:25:19;;;;;;;36.27;19.83;;;;;;;0.60;88.83;99196.84;1794867;80;21182;-60
2020/12/03 12:27:50;;;;;;;35.58;19.48;;;;;;;0.60;89.33;99192.47;1795090;80;21146;-50
2020/12/03 12:30:21;;;;;;;37.27;19.60;;;;;;;0.64;89.79;99191.25;1796426;78;21263;-56
2020/12/03 12:32:51;;;;;;;43.57;20.43;;;;;;;0.70;89.81;99184.21;1794936;80;21590;-62
2020/12/03 12:35:22;;;;;;;38.30;19.60;;;;;;;0.73;89.81;99181.33;1809134;78;21182;-63
2020/12/03 12:37:52;;;;;;;34.55;20.15;;;;;;;0.71;89.78;99170.76;1802129;78;21167;-53
2020/12/03 12:40:22;;;;;;;40.27;21.73;;;;;;;0.65;90.37;99172.61;1815438;78;21563;-48
2020/12/03 12:42:51;;;;;;;41.23;22.53;;;;;;;0.57;91.05;99173.27;1819581;78;21206;-57
2020/12/03 12:45:22;;;;;;;37.63;20.83;;;;;;;0.53;91.74;99168.84;1804822;78;21162;-62
2020/12/03 12:47:55;;;;;;;37.43;20.77;;;;;;;0.55;92.01;99159.62;1803518;78;21178;-54
2020/12/03 12:50:29;;;;;;;38.80;21.00;;;;;;;0.55;92.12;99160.10;1817214;77;21158;-58
2020/12/03 12:53:05;;;;;;;38.17;20.33;;;;;;;0.55;92.19;99166.59;1830028;77;21131;-66
2020/12/03 12:55:37;;;;;;;36.23;20.07;;;;;;;0.51;92.49;99156.47;1794715;80;21587;-53
2020/12/03 12:58:07;;;;;;;39.10;21.20;;;;;;;0.51;92.95;99164.25;1810068;78;21222;-59
2020/12/03 13:00:37;;;;;;;39.73;21.85;;;;;;;0.56;93.10;99166.92;1773789;79;21108;-49
2020/12/03 13:03:07;;;;;;;45.30;22.27;;;;;;;0.60;93.31;99168.30;1809801;78;21187;-53
2020/12/03 13:05:36;;;;;;;38.03;20.67;;;;;;;0.66;93.23;99169.86;1794525;80;21118;-54
2020/12/03 13:08:06;;;;;;;40.93;22.63;;;;;;;0.71;92.92;99181.14;1790407;80;21149;-50
2020/12/03 13:10:35;;;;;;;38.97;20.80;;;;;;;0.72;92.86;99183.59;1790424;80;21570;-52
2020/12/03 13:13:05;;;;;;;40.58;22.40;;;;;;;0.73;92.45;99170.13;1791869;78;21704;-54
2020/12/03 13:15:37;;;;;;;48.17;23.57;;;;;;;0.69;92.66;99177.39;1793101;79;21114;-57
2020/12/03 13:18:06;;;;;;;38.20;21.55;;;;;;;0.69;92.90;99181.73;1798666;78;21102;-63
2020/12/03 13:20:36;;;;;;;43.20;21.70;;;;;;;0.67;93.00;99176.69;1741101;81;21169;-61
2020/12/03 13:23:05;;;;;;;36.50;19.60;;;;;;;0.67;93.35;99175.39;1787243;79;21586;-53
2020/12/03 13:25:37;;;;;;;41.10;22.52;;;;;;;0.68;93.40;99162.75;1789709;80;21178;-48
2020/12/03 13:28:07;;;;;;;44.75;22.77;;;;;;;0.69;93.70;99151.89;1770831;80;21135;-51
2020/12/03 13:30:37;;;;;;;40.93;21.97;;;;;;;0.73;93.60;99151.97;1789838;80;21150;-47
2020/12/03 13:33:07;;;;;;;43.23;23.50;;;;;;;0.76;93.75;99152.52;1789896;80;21149;-62
2020/12/03 13:35:38;;;;;;;43.07;24.40;;;;;;;0.76;93.79;99155.59;1788464;78;21170;-61
2020/12/03 13:38:08;;;;;;;40.50;22.43;;;;;;;0.75;93.92;99150.89;1771273;80;22060;-60
2020/12/03 13:40:57;;;;;;;41.23;22.27;;;;;;;0.71;94.17;99152.59;1790044;80;21178;-52
2020/12/03 13:43:27;;;;;;;39.10;21.27;;;;;;;0.65;94.45;99152.66;1785613;79;21149;-53
2020/12/03 13:45:58;;;;;;;41.27;23.23;;;;;;;0.57;95.23;99145.21;1770318;79;21589;-50
2020/12/03 13:48:28;;;;;;;43.40;23.15;;;;;;;0.52;95.76;99155.54;1804083;78;21190;-54
2020/12/03 13:50:59;;;;;;;40.00;22.90;;;;;;;0.49;96.49;99142.83;1801320;78;21137;-55
2020/12/03 13:53:28;;;;;;;40.03;23.57;;;;;;;0.50;96.77;99144.46;1750827;81;21182;-51
2020/12/03 13:55:58;;;;;;;38.63;21.37;;;;;;;0.49;97.09;99136.83;1787792;79;21612;-61
2020/12/03 13:58:30;;;;;;;40.00;22.80;;;;;;;0.47;97.48;99135.67;1793383;78;21169;-57
2020/12/03 14:01:04;;;;;;;42.93;24.37;;;;;;;0.45;97.94;99133.67;1759620;80;21653;-57
2020/12/03 14:03:33;;;;;;;44.17;24.43;;;;;;;0.46;98.29;99130.59;1783821;80;21174;-56
2020/12/03 14:06:03;;;;;;;44.33;25.43;;;;;;;0.46;98.73;99130.15;1785625;79;21222;-48
2020/12/03 14:08:35;;;;;;;43.00;24.20;;;;;;;0.47;98.87;99133.08;1792915;80;21171;-50
2020/12/03 14:11:07;;;;;;;40.63;22.43;;;;;;;0.49;98.96;99129.04;1800544;78;21193;-55
2020/12/03 14:13:37;;;;;;;44.77;25.33;;;;;;;0.51;98.97;99134.42;1792803;78;21174;-52
2020/12/03 14:16:07;;;;;;;41.98;24.85;;;;;;;0.52;99.13;99123.59;1770019;80;21137;-51
2020/12/03 14:18:40;;;;;;;41.47;24.10;;;;;;;0.50;99.18;99136.68;1794072;78;21628;-47
2020/12/03 14:21:08;;;;;;;41.20;25.47;;;;;;;0.47;99.66;99140.86;1823029;78;21340;-52
